Time;durP1;ratioP1;P1;durP2;ratioP2;P2;SDS_P1;SDS_P2;PMS_P1;PMS_P2;Temp;Humidity;BMP_temperature;BMP_pressure;BME280_temperature;BME280_humidity;BME280_pressure;Samples;Min_cycle;Max_cycle;Signal;HPM_P1;HPM_P2
2023/02/09 00:00:37;;;;;;;24.23;12.18;;;;;;;4.89;46.01;103265.22;4960489;28;20117;-42
2023/02/09 00:03:02;;;;;;;27.38;12.73;;;;;;;4.90;46.28;103255.00;4964506;28;20088;-40
2023/02/09 00:05:27;;;;;;;25.02;11.57;;;;;;;5.01;46.35;103255.78;4959905;28;20589;-42
2023/02/09 00:07:53;;;;;;;26.13;12.50;;;;;;;5.04;45.80;103256.03;4963600;28;20046;-42
2023/02/09 00:10:18;;;;;;;30.08;12.85;;;;;;;4.99;45.75;103246.16;4962683;28;20045;-42
2023/02/09 00:15:27;;;;;;;25.65;11.93;;;;;;;5.03;45.82;103245.56;4959485;28;20033;-43
2023/02/09 00:17:53;;;;;;;25.40;12.38;;;;;;;5.00;46.35;103245.38;4963030;28;20122;-41
2023/02/09 00:20:18;;;;;;;27.65;12.70;;;;;;;5.02;46.05;103244.66;4962775;28;20027;-40
2023/02/09 00:22:43;;;;;;;26.75;12.63;;;;;;;5.02;46.41;103244.66;4957621;28;20038;-46
2023/02/09 00:25:09;;;;;;;25.88;12.60;;;;;;;4.99;46.17;103238.38;4962508;28;20524;-41
2023/02/09 00:27:34;;;;;;;25.83;12.70;;;;;;;4.96;46.05;103243.31;4959922;28;20070;-43
2023/02/09 00:30:00;;;;;;;31.27;12.80;;;;;;;4.99;46.02;103246.16;4962694;28;20066;-41
2023/02/09 00:32:25;;;;;;;27.85;12.95;;;;;;;5.00;46.10;103245.38;4958469;28;20038;-40
2023/02/09 00:34:50;;;;;;;26.35;12.98;;;;;;;4.96;45.84;103254.56;4962777;28;20046;-41
2023/02/09 00:37:16;;;;;;;27.00;12.40;;;;;;;4.86;46.16;103245.25;4962880;28;20066;-40
2023/02/09 00:39:41;;;;;;;27.33;12.63;;;;;;;4.91;45.47;103237.81;4959191;28;20556;-41
2023/02/09 00:42:06;;;;;;;25.75;12.73;;;;;;;4.98;45.65;103240.06;4962189;28;20038;-40
2023/02/09 00:44:37;;;;;;;28.80;12.85;;;;;;;4.88;46.16;103240.16;4959598;28;20065;-39
2023/02/09 00:47:03;;;;;;;27.45;13.52;;;;;;;4.93;45.84;103237.94;4966365;28;20433;-39
2023/02/09 00:49:29;;;;;;;26.08;12.25;;;;;;;4.93;46.09;103235.34;4964066;28;20512;-42
2023/02/09 00:51:54;;;;;;;26.48;13.23;;;;;;;4.94;46.13;103229.41;4966023;28;20102;-40
2023/02/09 00:54:20;;;;;;;28.13;12.70;;;;;;;4.94;46.17;103226.81;4965605;28;20037;-56
2023/02/09 00:56:45;;;;;;;26.35;12.85;;;;;;;4.93;46.10;103230.19;4960046;28;20047;-40
2023/02/09 00:59:11;;;;;;;29.40;12.73;;;;;;;4.95;45.98;103237.25;4962638;28;20072;-40
2023/02/09 01:01:37;;;;;;;28.83;13.52;;;;;;;4.89;45.64;103235.09;4958765;28;20594;-40
2023/02/09 01:04:03;;;;;;;26.63;13.43;;;;;;;4.86;45.86;103234.91;4962481;28;20042;-38
2023/02/09 01:06:28;;;;;;;26.30;12.80;;;;;;;4.82;45.64;103231.94;4958849;28;20039;-42
2023/02/09 01:08:54;;;;;;;27.30;13.50;;;;;;;4.87;46.16;103231.53;4962499;28;20438;-40
2023/02/09 01:11:21;;;;;;;29.80;13.57;;;;;;;4.84;46.51;103241.63;4961425;28;20106;-42
2023/02/09 01:13:47;;;;;;;25.25;13.00;;;;;;;4.86;45.93;103242.66;4954815;28;20122;-41
2023/02/09 01:16:16;;;;;;;35.92;13.90;;;;;;;4.76;46.23;103237.56;4962250;28;20039;-41
2023/02/09 01:18:42;;;;;;;30.48;13.57;;;;;;;4.77;46.32;103231.63;4958666;28;20070;-40
2023/02/09 01:21:12;;;;;;;28.63;13.70;;;;;;;4.78;46.12;103228.25;4961658;28;20031;-41
2023/02/09 01:23:37;;;;;;;28.73;13.38;;;;;;;4.83;46.27;103224.31;4958894;28;20500;-40
2023/02/09 01:26:06;;;;;;;29.38;13.60;;;;;;;4.82;45.81;103226.78;4962747;28;20030;-43
2023/02/09 01:28:31;;;;;;;26.20;13.07;;;;;;;4.71;46.08;103226.00;4959250;28;20100;-41
2023/02/09 01:30:56;;;;;;;30.35;14.02;;;;;;;4.80;45.39;103229.28;4961492;28;20117;-41
2023/02/09 01:33:22;;;;;;;27.92;12.48;;;;;;;4.82;45.70;103229.38;4958591;28;20515;-41
2023/02/09 01:35:47;;;;;;;27.90;12.85;;;;;;;4.90;45.28;103236.91;4961538;28;20069;-40
2023/02/09 01:38:13;;;;;;;26.63;13.02;;;;;;;4.82;45.89;103227.69;4961801;28;20058;-41
2023/02/09 01:40:38;;;;;;;27.65;13.40;;;;;;;4.88;45.79;103222.06;4957882;28;20058;-44
2023/02/09 01:43:03;;;;;;;28.50;13.30;;;;;;;4.82;46.05;103209.59;4962611;28;20509;-41
2023/02/09 01:45:42;;;;;;;28.15;13.02;;;;;;;4.73;45.97;103201.19;4959940;28;20524;-42
2023/02/09 01:48:08;;;;;;;30.50;12.80;;;;;;;4.75;46.31;103199.63;4964581;28;20031;-40
2023/02/09 01:50:38;;;;;;;28.65;13.63;;;;;;;4.70;46.44;103210.38;4960519;28;20524;-42
2023/02/09 01:53:05;;;;;;;27.33;12.88;;;;;;;4.74;46.21;103215.91;4963967;28;20035;-44
2023/02/09 01:55:35;;;;;;;29.00;13.48;;;;;;;4.85;46.19;103216.69;4959239;28;20242;-42
2023/02/09 01:58:09;;;;;;;27.63;13.13;;;;;;;4.74;46.22;103215.00;4963393;28;20027;-40
2023/02/09 02:00:34;;;;;;;36.08;13.45;;;;;;;4.72;46.36;103209.72;4960756;28;20083;-41
2023/02/09 02:03:05;;;;;;;24.48;12.63;;;;;;;4.86;46.33;103213.31;4962229;28;20046;-42
2023/02/09 02:05:33;;;;;;;28.63;12.88;;;;;;;4.79;46.02;103211.97;4957949;28;20095;-44
2023/02/09 02:08:13;;;;;;;26.40;13.05;;;;;;;4.79;46.17;103209.38;4962031;28;20485;-38
2023/02/09 02:10:39;;;;;;;27.48;13.32;;;;;;;4.76;46.66;103209.16;4957481;28;20065;-41
2023/02/09 02:13:04;;;;;;;25.90;12.80;;;;;;;4.78;46.20;103206.69;4962069;28;20030;-43
2023/02/09 02:15:40;;;;;;;26.25;12.52;;;;;;;4.72;46.19;103203.66;4958427;28;20413;-41
2023/02/09 02:18:39;;;;;;;29.65;13.50;;;;;;;4.56;47.06;103201.63;4961463;28;20093;-40
2023/02/09 02:21:10;;;;;;;28.40;13.65;;;;;;;4.59;47.32;103199.25;4956966;28;20039;-42
2023/02/09 02:23:52;;;;;;;28.10;13.57;;;;;;;4.53;47.74;103185.88;4958010;28;20039;-40
2023/02/09 02:26:29;;;;;;;28.50;13.55;;;;;;;4.46;47.31;103191.38;4961650;28;20039;-40
2023/02/09 02:29:13;;;;;;;28.42;13.60;;;;;;;4.37;47.71;103189.00;4959218;28;20421;-41
2023/02/09 02:32:24;;;;;;;28.35;13.18;;;;;;;4.42;47.96;103171.28;4957176;28;20035;-41
2023/02/09 02:35:10;;;;;;;28.48;13.68;;;;;;;4.51;47.84;103164.22;4958045;28;20027;-41
2023/02/09 02:38:00;;;;;;;27.23;13.70;;;;;;;4.47;47.97;103159.59;4957610;28;20035;-41
2023/02/09 02:40:31;;;;;;;28.13;13.38;;;;;;;4.55;47.87;103152.41;4961046;28;20420;-41
2023/02/09 02:43:01;;;;;;;29.25;13.45;;;;;;;4.65;47.27;103155.78;4964018;28;20099;-41
2023/02/09 02:46:00;;;;;;;25.83;12.95;;;;;;;4.61;47.75;103152.88;4958647;28;20084;-43
2023/02/09 02:48:41;;;;;;;25.92;12.90;;;;;;;4.62;47.90;103153.00;4961916;28;20093;-41
2023/02/09 02:51:16;;;;;;;27.05;12.77;;;;;;;4.57;48.34;103153.44;4964475;28;20039;-43
2023/02/09 02:53:47;;;;;;;28.52;13.10;;;;;;;4.49;48.10;103148.59;4960418;28;20042;-40
2023/02/09 02:56:23;;;;;;;29.13;13.30;;;;;;;4.56;47.98;103146.47;4964129;28;20035;-41
2023/02/09 02:58:53;;;;;;;31.35;13.75;;;;;;;4.45;48.37;103151.72;4961762;28;20093;-43
2023/02/09 03:01:22;;;;;;;30.67;14.30;;;;;;;4.60;47.65;103149.38;4964692;28;20084;-41
2023/02/09 03:03:50;;;;;;;27.58;13.10;;;;;;;4.57;47.99;103145.69;4958183;28;20514;-41
2023/02/09 03:06:17;;;;;;;29.25;13.95;;;;;;;4.50;48.46;103152.09;4960966;28;20235;-41
2023/02/09 03:09:00;;;;;;;31.45;13.90;;;;;;;4.46;48.17;103140.63;4957533;28;20088;-41
2023/02/09 03:11:50;;;;;;;27.45;13.30;;;;;;;4.46;48.56;103135.44;4957313;28;20408;-41
2023/02/09 03:14:45;;;;;;;30.38;13.70;;;;;;;4.49;48.59;103134.78;4960944;28;20523;-41
2023/02/09 03:17:33;;;;;;;27.40;13.10;;;;;;;4.52;48.44;103124.66;4957622;28;20060;-41
2023/02/09 03:20:12;;;;;;;28.88;13.88;;;;;;;4.58;48.59;103130.28;4956536;28;20041;-43
2023/02/09 03:22:41;;;;;;;30.08;14.13;;;;;;;4.60;48.95;103130.41;4958426;28;20525;-42
2023/02/09 03:25:26;;;;;;;32.90;14.00;;;;;;;4.67;48.38;103124.91;4964131;28;20495;-43
2023/02/09 03:27:58;;;;;;;29.55;13.73;;;;;;;4.65;48.87;103122.19;4960595;28;20035;-40
2023/02/09 03:30:24;;;;;;;28.50;13.80;;;;;;;4.57;48.73;103119.88;4959730;28;20046;-40
2023/02/09 03:32:54;;;;;;;32.97;14.20;;;;;;;4.52;49.48;103119.50;4964156;28;20031;-42
2023/02/09 03:35:23;;;;;;;30.52;13.85;;;;;;;4.46;49.62;103106.13;4963775;28;20023;-40
2023/02/09 03:37:48;;;;;;;30.42;14.77;;;;;;;4.56;48.94;103102.56;4959050;28;20043;-45
2023/02/09 03:40:14;;;;;;;28.38;14.25;;;;;;;4.57;49.21;103113.00;5028914;28;20296;-40
2023/02/09 03:42:39;;;;;;;30.92;14.75;;;;;;;4.57;49.93;103106.94;4959475;28;20133;-40
2023/02/09 03:45:06;;;;;;;29.65;14.23;;;;;;;4.55;49.91;103104.25;4963256;28;20038;-40
2023/02/09 03:47:32;;;;;;;28.17;14.65;;;;;;;4.47;49.28;103095.94;4960085;28;20108;-40
2023/02/09 03:49:58;;;;;;;28.90;14.60;;;;;;;4.52;50.37;103092.75;4963475;28;20035;-40
2023/02/09 03:52:23;;;;;;;29.60;14.38;;;;;;;4.54;50.21;103097.28;4958954;28;20121;-41
2023/02/09 03:54:49;;;;;;;31.08;14.38;;;;;;;4.55;50.60;103101.66;4963021;28;20096;-41
2023/02/09 03:57:14;;;;;;;31.73;14.85;;;;;;;4.60;50.42;103104.56;4963458;28;20045;-41
2023/02/09 03:59:40;;;;;;;30.75;14.88;;;;;;;4.51;50.58;103101.34;4959989;28;20054;-41
2023/02/09 04:02:07;;;;;;;33.15;15.57;;;;;;;4.42;50.94;103109.28;4962202;28;20428;-41
2023/02/09 04:04:33;;;;;;;33.15;15.18;;;;;;;4.59;50.67;103115.69;4959199;28;20031;-41
2023/02/09 04:06:59;;;;;;;29.30;15.23;;;;;;;4.59;50.67;103116.59;4963213;28;20089;-42
2023/02/09 04:09:26;;;;;;;31.23;14.88;;;;;;;4.36;51.42;103104.56;4960029;28;20031;-41
2023/02/09 04:11:52;;;;;;;31.20;15.27;;;;;;;4.57;50.67;103100.09;4962424;28;20035;-42
2023/02/09 04:14:17;;;;;;;30.55;15.25;;;;;;;4.50;51.32;103100.44;4962903;28;20038;-43
2023/02/09 04:16:43;;;;;;;37.53;15.32;;;;;;;4.58;51.12;103101.88;4959608;28;20122;-41
2023/02/09 04:19:08;;;;;;;30.15;14.60;;;;;;;4.60;50.62;103092.56;4964099;28;20320;-40
2023/02/09 04:21:35;;;;;;;27.92;14.38;;;;;;;4.62;50.45;103095.25;4962780;28;20042;-40
2023/02/09 04:24:01;;;;;;;30.90;15.43;;;;;;;4.37;50.69;103097.72;4967264;28;20065;-39
2023/02/09 04:26:27;;;;;;;32.38;15.65;;;;;;;4.43;51.20;103090.44;4963824;28;20035;-41
2023/02/09 04:28:52;;;;;;;30.58;15.00;;;;;;;4.51;50.98;103096.16;4966462;28;20031;-42
2023/02/09 04:31:17;;;;;;;31.65;15.05;;;;;;;4.49;51.01;103098.63;4966492;28;20440;-41
2023/02/09 04:33:43;;;;;;;30.10;14.45;;;;;;;4.46;51.54;103104.44;4963086;28;20031;-41
2023/02/09 04:36:08;;;;;;;30.15;14.65;;;;;;;4.32;51.57;103096.50;4965541;28;20050;-42
2023/02/09 04:38:34;;;;;;;30.52;14.43;;;;;;;4.34;51.35;103102.66;4960507;28;20050;-41
2023/02/09 04:41:01;;;;;;;36.20;14.48;;;;;;;4.20;52.07;103111.97;4962315;28;20039;-43
2023/02/09 04:43:26;;;;;;;29.48;14.32;;;;;;;4.51;51.16;103125.47;4959256;28;20548;-40
2023/02/09 04:45:52;;;;;;;32.33;14.88;;;;;;;4.46;50.69;103122.53;4962650;28;20438;-40
2023/02/09 04:48:20;;;;;;;29.95;14.30;;;;;;;4.45;51.00;103127.63;4962891;28;20088;-40
2023/02/09 04:50:46;;;;;;;30.23;14.55;;;;;;;4.14;51.74;103132.19;4958791;28;20440;-40
2023/02/09 04:53:11;;;;;;;30.40;14.88;;;;;;;4.42;51.16;103132.53;4962731;28;20060;-43
2023/02/09 04:55:38;;;;;;;28.52;14.13;;;;;;;4.39;50.94;103128.03;4959920;28;20054;-41
2023/02/09 05:00:48;;;;;;;27.52;13.63;;;;;;;4.37;51.30;103124.44;4967057;28;20041;-42
2023/02/09 05:03:13;;;;;;;33.58;14.02;;;;;;;4.45;51.39;103122.44;4967028;28;20060;-39
2023/02/09 05:05:40;;;;;;;31.48;14.63;;;;;;;4.27;51.66;103141.75;4961497;28;20043;-40
2023/02/09 05:08:05;;;;;;;28.92;14.45;;;;;;;4.40;51.17;103139.25;4963741;28;20038;-40
2023/02/09 05:10:30;;;;;;;27.60;14.20;;;;;;;4.44;50.82;103133.56;4958406;28;20038;-39
2023/02/09 05:12:56;;;;;;;28.58;13.95;;;;;;;4.28;51.80;103139.25;4962550;28;20520;-42
2023/02/09 05:15:21;;;;;;;29.42;14.43;;;;;;;4.12;51.77;103150.91;4959305;28;20038;-41
2023/02/09 05:17:46;;;;;;;29.25;14.13;;;;;;;4.26;52.14;103153.75;4962263;28;20034;-40
2023/02/09 05:20:12;;;;;;;27.90;14.32;;;;;;;4.31;52.10;103146.34;4962264;28;20079;-42
2023/02/09 05:22:37;;;;;;;27.17;13.88;;;;;;;4.38;51.34;103149.50;4958107;28;20543;-39
2023/02/09 05:25:03;;;;;;;27.90;13.60;;;;;;;4.23;51.71;103148.34;4962084;28;20301;-40
2023/02/09 05:27:28;;;;;;;30.50;14.20;;;;;;;4.34;51.88;103154.28;4958557;28;20039;-40
2023/02/09 05:29:53;;;;;;;27.25;14.05;;;;;;;4.36;52.22;103163.97;4962324;28;20062;-41
2023/02/09 05:32:19;;;;;;;29.48;13.68;;;;;;;4.30;52.17;103157.44;4961457;28;20031;-41
2023/02/09 05:34:44;;;;;;;28.67;13.98;;;;;;;4.25;52.01;103145.88;4958265;28;20038;-41
2023/02/09 05:37:09;;;;;;;28.70;13.50;;;;;;;4.22;51.91;103146.53;4962286;28;20067;-41
2023/02/09 05:39:34;;;;;;;30.60;13.82;;;;;;;4.02;52.80;103149.31;4958450;28;20497;-41
2023/02/09 05:42:15;;;;;;;28.23;13.27;;;;;;;4.22;51.59;103143.94;4960865;28;20050;-40
2023/02/09 05:44:48;;;;;;;26.80;12.93;;;;;;;4.22;51.32;103143.06;4957592;28;24674;-41
2023/02/09 05:47:16;;;;;;;32.20;14.07;;;;;;;4.25;51.38;103133.88;4961574;28;20400;-43
2023/02/09 05:49:42;;;;;;;26.83;12.65;;;;;;;4.28;51.48;103140.94;4958650;28;20038;-41
2023/02/09 05:52:09;;;;;;;28.55;13.05;;;;;;;4.32;51.38;103151.63;4960779;28;20459;-41
2023/02/09 05:54:34;;;;;;;30.52;13.43;;;;;;;4.23;51.48;103156.09;4957936;28;20035;-42
2023/02/09 05:57:00;;;;;;;27.48;12.55;;;;;;;4.27;51.93;103167.56;4961743;28;20039;-41
2023/02/09 05:59:25;;;;;;;26.50;12.60;;;;;;;4.29;51.81;103160.81;4958267;28;20206;-39
2023/02/09 06:01:51;;;;;;;29.65;12.93;;;;;;;4.34;50.88;103167.22;4961019;28;20045;-42
2023/02/09 06:04:16;;;;;;;26.50;12.48;;;;;;;4.33;51.28;103168.88;4961740;28;20039;-41
2023/02/09 06:06:42;;;;;;;27.98;12.57;;;;;;;4.35;51.71;103169.00;4959286;28;20383;-41
2023/02/09 06:09:08;;;;;;;24.35;12.55;;;;;;;4.33;50.93;103168.88;4963272;28;20038;-41
2023/02/09 06:11:33;;;;;;;25.02;12.18;;;;;;;4.32;51.58;103164.53;4959713;28;20501;-40
2023/02/09 06:13:59;;;;;;;26.45;12.70;;;;;;;4.35;50.70;103163.84;4964965;28;20405;-40
2023/02/09 06:16:24;;;;;;;31.05;12.85;;;;;;;4.35;50.87;103177.66;4957994;28;20023;-40
2023/02/09 06:18:50;;;;;;;25.77;12.27;;;;;;;4.16;51.32;103173.56;4961750;28;20497;-43
2023/02/09 06:21:15;;;;;;;25.02;12.38;;;;;;;4.25;51.53;103177.75;4960907;28;20044;-42
2023/02/09 06:23:40;;;;;;;26.05;12.05;;;;;;;4.33;51.25;103174.06;4957991;28;20042;-43
2023/02/09 06:26:08;;;;;;;23.50;11.52;;;;;;;4.32;50.67;103172.28;4961283;28;20364;-41
2023/02/09 06:28:33;;;;;;;26.25;12.75;;;;;;;4.27;51.22;103176.19;4957766;28;20030;-39
2023/02/09 06:30:58;;;;;;;27.75;12.30;;;;;;;4.23;51.39;103178.41;4960378;28;20084;-42
2023/02/09 06:33:24;;;;;;;27.63;12.25;;;;;;;4.27;51.67;103189.09;4957637;28;20031;-40
2023/02/09 06:35:49;;;;;;;27.60;12.48;;;;;;;4.20;51.05;103192.00;4961136;28;20031;-42
2023/02/09 06:38:14;;;;;;;27.23;12.25;;;;;;;4.18;51.13;103192.66;4961086;28;20062;-39
2023/02/09 06:40:40;;;;;;;25.88;12.32;;;;;;;4.15;51.21;103205.34;4960574;28;22094;-39
2023/02/09 06:43:05;;;;;;;24.85;11.75;;;;;;;4.14;51.38;103194.13;4964739;28;20050;-40
2023/02/09 06:45:30;;;;;;;26.75;11.95;;;;;;;4.15;51.64;103182.13;4959862;28;20046;-41
2023/02/09 06:47:56;;;;;;;27.52;12.43;;;;;;;4.15;51.92;103172.66;4961412;28;20077;-45
2023/02/09 06:50:21;;;;;;;24.80;12.18;;;;;;;4.17;51.85;103175.38;4959064;28;20029;-39
2023/02/09 06:52:47;;;;;;;24.45;12.07;;;;;;;4.18;52.03;103172.00;4964600;28;20107;-41
2023/02/09 06:55:12;;;;;;;27.15;12.68;;;;;;;4.06;52.00;103162.56;4963639;28;20027;-43
2023/02/09 06:57:38;;;;;;;22.42;11.70;;;;;;;4.23;52.07;103163.81;4962265;28;20544;-40
2023/02/09 07:00:06;;;;;;;26.55;12.40;;;;;;;3.98;52.61;103181.72;4962652;28;20056;-40
2023/02/09 07:02:31;;;;;;;26.90;12.43;;;;;;;4.23;51.56;103174.16;4962346;28;20043;-40
2023/02/09 07:04:57;;;;;;;25.83;11.90;;;;;;;4.26;51.75;103182.16;4965884;28;20400;-41
2023/02/09 07:07:22;;;;;;;31.77;12.73;;;;;;;4.23;52.06;103162.94;4964776;28;20023;-40
2023/02/09 07:09:48;;;;;;;26.05;11.70;;;;;;;4.23;51.98;103160.34;4968736;28;20042;-40
2023/02/09 07:12:13;;;;;;;26.95;12.57;;;;;;;4.32;51.56;103173.97;4966213;28;20581;-43
2023/02/09 07:14:39;;;;;;;26.63;13.02;;;;;;;4.20;52.40;103171.34;4961543;28;20385;-42
2023/02/09 07:17:04;;;;;;;26.30;12.10;;;;;;;4.25;52.24;103182.03;4964427;28;20039;-42
2023/02/09 07:19:29;;;;;;;27.42;13.02;;;;;;;4.24;52.67;103178.53;4960654;28;20039;-43
2023/02/09 07:21:55;;;;;;;28.38;12.23;;;;;;;4.23;52.17;103179.31;4963584;28;20340;-41
2023/02/09 07:24:20;;;;;;;30.38;12.90;;;;;;;4.17;52.24;103178.84;4964129;28;20126;-42
2023/02/09 07:26:45;;;;;;;27.27;12.50;;;;;;;4.27;51.97;103183.91;4960617;28;20493;-41
2023/02/09 07:29:11;;;;;;;28.42;12.48;;;;;;;4.19;52.71;103187.63;4964221;28;20038;-41
2023/02/09 07:31:36;;;;;;;25.98;12.75;;;;;;;4.27;52.12;103186.50;4959587;28;20031;-44
2023/02/09 07:34:01;;;;;;;28.38;12.57;;;;;;;4.37;52.43;103190.69;4964011;28;20229;-40
2023/02/09 07:36:27;;;;;;;25.83;12.65;;;;;;;4.40;52.60;103183.16;4960887;28;20052;-41
2023/02/09 07:38:54;;;;;;;25.38;12.23;;;;;;;4.31;52.28;103187.66;4964208;28;20045;-42
2023/02/09 07:41:24;;;;;;;27.95;13.02;;;;;;;4.43;52.32;103204.97;4964032;28;20041;-40
2023/02/09 07:43:49;;;;;;;28.45;12.80;;;;;;;4.40;52.75;103203.81;4960438;28;20046;-42
2023/02/09 07:46:17;;;;;;;25.70;12.90;;;;;;;4.44;52.43;103200.72;4963749;28;20031;-40
2023/02/09 07:48:43;;;;;;;25.38;12.77;;;;;;;4.50;52.29;103193.41;4960331;28;20042;-40
2023/02/09 07:51:18;;;;;;;23.40;12.38;;;;;;;4.49;52.19;103208.00;4962651;28;20031;-41
2023/02/09 07:53:44;;;;;;;29.67;13.30;;;;;;;4.49;52.56;103202.84;4960102;28;20450;-41
2023/02/09 07:56:09;;;;;;;25.70;12.65;;;;;;;4.49;52.72;103199.38;4963793;28;20042;-44
2023/02/09 07:58:34;;;;;;;28.20;13.20;;;;;;;4.39;53.18;103184.84;4960212;28;20039;-41
2023/02/09 08:01:05;;;;;;;24.15;12.57;;;;;;;4.40;52.69;103196.97;4962929;28;20217;-43
2023/02/09 08:03:33;;;;;;;25.63;12.35;;;;;;;4.63;52.43;103200.41;4959817;28;20205;-43
2023/02/09 08:06:17;;;;;;;26.92;12.52;;;;;;;4.79;52.11;103195.56;4964094;28;20088;-43
2023/02/09 08:08:47;;;;;;;27.25;12.30;;;;;;;4.74;51.88;103202.09;4959104;28;20039;-41
2023/02/09 08:11:16;;;;;;;25.45;12.40;;;;;;;4.86;52.09;103206.47;4962699;28;20075;-40
2023/02/09 08:13:42;;;;;;;27.77;12.88;;;;;;;4.83;51.70;103206.22;4959807;28;20048;-40
2023/02/09 08:16:11;;;;;;;25.95;12.35;;;;;;;4.57;52.56;103210.28;4963402;28;20436;-40
2023/02/09 08:18:42;;;;;;;24.85;11.98;;;;;;;4.67;53.11;103198.16;4961947;28;20305;-42
2023/02/09 08:21:11;;;;;;;30.67;13.35;;;;;;;5.00;52.01;103198.84;4964902;28;20089;-41
2023/02/09 08:23:39;;;;;;;28.30;12.70;;;;;;;4.85;51.91;103193.44;4961240;28;20527;-41
2023/02/09 08:26:08;;;;;;;23.67;12.10;;;;;;;5.05;51.46;103202.66;4965306;28;20035;-42
2023/02/09 08:28:35;;;;;;;26.20;12.32;;;;;;;5.17;51.28;103182.84;4961712;28;20184;-39
2023/02/09 08:31:00;;;;;;;27.00;12.85;;;;;;;5.29;51.38;103196.66;4963214;28;20055;-40
2023/02/09 08:33:26;;;;;;;30.20;13.05;;;;;;;5.18;51.53;103192.41;4959587;28;20069;-42
2023/02/09 08:35:51;;;;;;;26.52;13.18;;;;;;;5.25;51.43;103192.94;4963199;28;20050;-41
2023/02/09 08:38:17;;;;;;;26.70;12.35;;;;;;;4.86;51.85;103197.81;4963249;28;20614;-41
2023/02/09 08:40:43;;;;;;;29.52;12.68;;;;;;;5.14;51.65;103192.94;4958719;28;20121;-41
2023/02/09 08:43:10;;;;;;;24.98;12.50;;;;;;;5.38;50.98;103194.72;4963087;28;20172;-39
2023/02/09 08:45:36;;;;;;;28.67;13.20;;;;;;;5.48;50.58;103184.25;4959068;28;20051;-44
2023/02/09 08:48:03;;;;;;;30.13;13.18;;;;;;;5.50;50.80;103184.31;4963145;28;20083;-44
2023/02/09 08:50:28;;;;;;;27.02;12.90;;;;;;;5.39;50.88;103201.69;5024545;28;20034;-40
2023/02/09 08:52:56;;;;;;;29.45;12.98;;;;;;;5.13;52.06;103217.00;4962535;28;20377;-40
2023/02/09 08:55:22;;;;;;;27.08;12.52;;;;;;;5.13;52.82;103209.25;4958590;28;20027;-37
2023/02/09 08:57:47;;;;;;;27.85;12.80;;;;;;;5.34;51.51;103199.56;4962307;28;20386;-41
2023/02/09 09:00:13;;;;;;;30.58;13.73;;;;;;;5.63;51.09;103199.94;4964518;28;20054;-40
2023/02/09 09:02:38;;;;;;;27.50;12.77;;;;;;;5.72;51.17;103205.75;4962996;28;20039;-41
2023/02/09 09:05:04;;;;;;;27.40;13.18;;;;;;;5.66;51.25;103193.28;4963207;28;20045;-40
2023/02/09 09:07:29;;;;;;;30.25;13.13;;;;;;;5.68;51.60;103195.97;4959083;28;20137;-42
2023/02/09 09:09:55;;;;;;;26.83;12.98;;;;;;;5.85;51.09;103198.06;4962915;28;20034;-40
2023/02/09 09:12:20;;;;;;;27.33;13.35;;;;;;;5.90;51.00;103188.06;4963163;28;20031;-42
2023/02/09 09:14:46;;;;;;;32.63;13.60;;;;;;;6.30;50.49;103183.88;4962617;28;20027;-41
2023/02/09 09:17:11;;;;;;;27.73;14.02;;;;;;;6.08;50.61;103187.63;4965558;28;20092;-41
2023/02/09 09:19:37;;;;;;;30.58;12.77;;;;;;;6.08;51.15;103197.09;4961134;28;20493;-41
2023/02/09 09:22:02;;;;;;;34.83;13.93;;;;;;;6.13;50.76;103189.63;4961839;28;20041;-39
2023/02/09 09:24:29;;;;;;;30.13;13.80;;;;;;;6.00;51.04;103190.47;4958798;28;20046;-42
2023/02/09 09:26:56;;;;;;;28.27;13.77;;;;;;;5.99;50.71;103204.19;4962558;28;20310;-42
2023/02/09 09:29:23;;;;;;;29.80;13.23;;;;;;;6.24;50.64;103210.28;4958804;28;20039;-37
2023/02/09 09:31:48;;;;;;;28.92;14.10;;;;;;;6.62;50.17;103209.34;4961069;28;20520;-40
2023/02/09 09:34:13;;;;;;;30.10;14.13;;;;;;;6.42;50.75;103214.09;4961947;28;20043;-41
2023/02/09 09:36:39;;;;;;;26.67;13.75;;;;;;;6.63;50.46;103222.44;4958708;28;20042;-40
2023/02/09 09:39:04;;;;;;;28.10;14.52;;;;;;;6.83;50.07;103224.63;4959819;28;20038;-39
2023/02/09 09:41:35;;;;;;;37.28;14.15;;;;;;;6.48;50.72;103221.38;4957601;28;20039;-45
2023/02/09 09:44:02;;;;;;;30.02;14.48;;;;;;;6.84;50.06;103226.44;4961528;28;20042;-42
2023/02/09 09:46:35;;;;;;;30.15;14.10;;;;;;;6.75;50.95;103228.44;4958117;28;20066;-41
2023/02/09 09:49:01;;;;;;;28.77;13.98;;;;;;;7.08;50.25;103218.44;4961974;28;20401;-41
2023/02/09 09:51:40;;;;;;;29.67;14.20;;;;;;;7.25;50.13;103215.25;4961328;28;20158;-40
2023/02/09 09:54:15;;;;;;;32.28;14.55;;;;;;;7.57;49.02;103212.09;4958211;28;20038;-40
2023/02/09 09:56:40;;;;;;;31.63;14.77;;;;;;;7.31;50.12;103220.84;4957969;28;20092;-42
2023/02/09 09:59:15;;;;;;;28.48;14.48;;;;;;;7.17;50.33;103222.53;4961530;28;20073;-42
2023/02/09 10:01:40;;;;;;;32.05;14.93;;;;;;;7.20;50.76;103220.13;4957399;28;24392;-43
2023/02/09 10:04:12;;;;;;;30.75;15.10;;;;;;;7.13;50.71;103227.44;4961696;28;20035;-39
2023/02/09 10:06:40;;;;;;;29.60;14.93;;;;;;;7.21;50.92;103228.81;4958306;28;20038;-40
2023/02/09 10:09:20;;;;;;;29.83;14.93;;;;;;;7.25;51.10;103228.25;5027780;28;20364;-44
2023/02/09 10:11:51;;;;;;;27.90;14.43;;;;;;;7.37;50.63;103230.72;4957924;28;20043;-40
2023/02/09 10:14:17;;;;;;;30.58;15.20;;;;;;;7.21;51.22;103234.00;4963690;28;20440;-41
2023/02/09 10:16:43;;;;;;;29.65;15.40;;;;;;;7.43;51.12;103236.28;4960586;28;20121;-41
2023/02/09 10:19:24;;;;;;;36.20;14.95;;;;;;;7.60;50.64;103244.34;4962446;28;20084;-41
2023/02/09 10:21:51;;;;;;;32.90;15.02;;;;;;;7.56;51.25;103249.25;4955716;28;20042;-43
2023/02/09 10:24:25;;;;;;;33.83;15.75;;;;;;;7.00;52.71;103241.31;4962188;28;20104;-41
2023/02/09 10:27:21;;;;;;;29.70;15.52;;;;;;;7.28;52.17;103249.19;4958851;28;20047;-40
2023/02/09 10:29:46;;;;;;;31.63;15.70;;;;;;;7.42;52.32;103242.28;4949190;28;20023;-41
2023/02/09 10:32:18;;;;;;;34.03;16.15;;;;;;;7.17;52.56;103250.19;4960448;28;20027;-42
2023/02/09 10:34:49;;;;;;;28.73;15.52;;;;;;;7.07;53.22;103243.50;4957744;28;20046;-42
2023/02/09 10:37:24;;;;;;;30.05;16.67;;;;;;;7.65;52.29;103250.72;4960918;28;20034;-43
2023/02/09 10:40:04;;;;;;;;;;;;;;;7.82;52.21;103249.16;4958126;28;20031;-42
2023/02/09 10:42:33;;;;;;;31.65;15.65;;;;;;;8.02;51.83;103253.00;4956892;28;19952;-42
2023/02/09 10:45:37;;;;;;;33.40;16.63;;;;;;;7.83;51.95;103247.47;4961067;28;20042;-39
2023/02/09 10:48:11;;;;;;;35.08;16.85;;;;;;;8.00;52.40;103254.59;4961398;28;20050;-45
2023/02/09 10:50:54;;;;;;;33.63;17.23;;;;;;;7.84;52.80;103263.16;4957190;28;20382;-41
2023/02/09 10:53:26;;;;;;;31.15;16.83;;;;;;;8.33;52.14;103259.31;4961217;28;20416;-41
2023/02/09 10:56:06;;;;;;;30.75;16.58;;;;;;;8.27;52.45;103264.09;4958939;28;20034;-41
2023/02/09 10:58:36;;;;;;;31.67;17.52;;;;;;;7.83;53.33;103269.16;4959732;28;20038;-42
2023/02/09 11:01:07;;;;;;;32.85;16.98;;;;;;;8.25;53.13;103255.31;4963878;28;20031;-40
2023/02/09 11:03:33;;;;;;;38.47;18.05;;;;;;;8.65;52.48;103257.72;4962423;28;20043;-40
2023/02/09 11:06:01;;;;;;;32.80;17.90;;;;;;;8.29;53.42;103267.69;4963512;28;20031;-41
2023/02/09 11:08:40;;;;;;;35.55;17.45;;;;;;;8.36;53.42;103263.78;4961109;28;20073;-39
2023/02/09 11:11:25;;;;;;;34.05;19.15;;;;;;;8.29;54.44;103267.69;4970971;28;20110;-41
2023/02/09 11:13:51;;;;;;;34.22;18.50;;;;;;;8.72;53.96;103272.91;4957703;28;20054;-40
2023/02/09 11:16:28;;;;;;;37.75;18.98;;;;;;;8.29;54.72;103274.59;4961993;28;20031;-41
2023/02/09 11:19:03;;;;;;;38.80;19.23;;;;;;;7.84;56.18;103270.94;4959405;28;20112;-40
2023/02/09 11:21:46;;;;;;;37.85;19.17;;;;;;;8.08;55.97;103271.56;4960277;28;20031;-41
2023/02/09 11:24:24;;;;;;;38.15;18.60;;;;;;;8.18;56.09;103268.72;4964896;28;20042;-41
2023/02/09 11:27:03;;;;;;;39.10;19.65;;;;;;;8.18;55.77;103260.03;4960793;28;20099;-41
2023/02/09 11:29:39;;;;;;;36.70;19.13;;;;;;;8.61;55.10;103267.03;4960871;28;20059;-42